createdAt,value
2018-05-29T00:00:01.690Z,60.40
2018-05-29T00:02:30.264Z,60.30
2018-05-29T00:04:58.924Z,60.10
2018-05-29T00:07:27.271Z,60.20
2018-05-29T00:09:56.667Z,60.10
2018-05-29T00:12:25.919Z,60.00
2018-05-29T00:14:54.242Z,60.00
2018-05-29T00:17:23.405Z,60.70
2018-05-29T00:19:51.775Z,60.10
2018-05-29T00:22:20.584Z,60.10
2018-05-29T00:24:48.937Z,60.50
2018-05-29T00:27:18.266Z,60.50
2018-05-29T00:29:47.409Z,60.80
2018-05-29T00:32:15.808Z,60.70
2018-05-29T00:34:44.146Z,60.70
2018-05-29T00:37:14.485Z,61.90
2018-05-29T00:39:42.917Z,61.80
2018-05-29T00:42:12.575Z,61.10
2018-05-29T00:44:40.916Z,61.10
2018-05-29T00:47:10.255Z,60.80
2018-05-29T00:49:38.575Z,60.70
2018-05-29T00:52:07.251Z,61.50
2018-05-29T00:54:35.680Z,61.70
2018-05-29T00:57:04.029Z,61.70
2018-05-29T00:59:32.361Z,61.90
2018-05-29T01:02:00.933Z,61.60
2018-05-29T01:04:29.256Z,61.60
2018-05-29T01:06:57.824Z,61.30
2018-05-29T01:09:26.391Z,61.10
2018-05-29T01:11:54.941Z,61.10
2018-05-29T01:14:23.274Z,61.10
2018-05-29T01:16:52.857Z,61.90
2018-05-29T01:19:21.200Z,61.90
2018-05-29T01:21:49.734Z,62.20
2018-05-29T01:24:19.054Z,62.70
2018-05-29T01:26:47.576Z,62.70
2018-05-29T01:29:15.962Z,62.70
2018-05-29T01:31:44.360Z,62.80
2018-05-29T01:34:13.547Z,63.10
2018-05-29T01:36:41.842Z,63.00
2018-05-29T01:39:11.201Z,62.80
2018-05-29T01:41:39.527Z,62.80
2018-05-29T01:44:08.151Z,62.80
2018-05-29T01:46:36.647Z,62.40
2018-05-29T01:49:05.023Z,62.40
2018-05-29T01:51:33.449Z,62.30
2018-05-29T01:54:01.832Z,62.50
2018-05-29T01:56:30.492Z,62.30
2018-05-29T01:58:58.816Z,62.20
2018-05-29T02:01:27.127Z,62.20
2018-05-29T02:03:57.134Z,62.10
2018-05-29T02:06:26.326Z,62.00
2018-05-29T02:08:54.641Z,62.10
2018-05-29T02:11:24.052Z,62.10
2018-05-29T02:13:52.382Z,62.10
2018-05-29T02:16:20.806Z,62.10
2018-05-29T02:18:49.218Z,62.10
2018-05-29T02:21:17.831Z,62.40
2018-05-29T02:23:46.362Z,62.50
2018-05-29T02:26:14.700Z,62.50
2018-05-29T02:28:43.814Z,62.40
2018-05-29T02:31:12.206Z,62.40
2018-05-29T02:33:40.572Z,62.70
2018-05-29T02:36:09.170Z,62.60
2018-05-29T02:38:37.540Z,63.60
2018-05-29T02:41:05.891Z,64.40
2018-05-29T02:43:36.170Z,64.50
2018-05-29T02:46:04.477Z,65.10
2018-05-29T02:48:33.700Z,64.70
2018-05-29T02:51:02.031Z,64.70
2018-05-29T02:53:30.806Z,64.30
2018-05-29T02:55:59.360Z,64.40
2018-05-29T02:58:27.702Z,66.30
2018-05-29T03:00:56.804Z,66.50
2018-05-29T03:03:25.912Z,65.90
2018-05-29T03:05:54.280Z,65.90
2018-05-29T03:08:23.612Z,65.20
2018-05-29T03:10:52.277Z,65.10
2018-05-29T03:13:20.761Z,64.90
2018-05-29T03:15:49.211Z,64.60
2018-05-29T03:18:19.486Z,64.20
2018-05-29T03:20:48.052Z,64.20
2018-05-29T03:23:16.511Z,64.00
2018-05-29T03:25:44.958Z,63.80
2018-05-29T03:28:14.192Z,64.40
2018-05-29T03:30:42.531Z,64.30
2018-05-29T03:33:11.136Z,64.30
2018-05-29T03:35:39.470Z,64.50
2018-05-29T03:38:07.960Z,64.30
2018-05-29T03:40:36.851Z,64.30
2018-05-29T03:43:05.457Z,64.20
2018-05-29T03:45:33.846Z,64.40
2018-05-29T03:48:02.200Z,64.20
2018-05-29T03:50:31.806Z,64.20
2018-05-29T03:53:02.298Z,64.10
2018-05-29T03:55:30.738Z,64.00
2018-05-29T03:57:59.031Z,63.80
2018-05-29T04:00:27.326Z,63.80
2018-05-29T04:02:55.743Z,65.60
2018-05-29T04:05:24.243Z,65.60
2018-05-29T04:07:52.801Z,64.50
2018-05-29T04:10:21.961Z,62.60
2018-05-29T04:12:50.303Z,62.60
2018-05-29T04:15:18.671Z,61.40
2018-05-29T04:17:46.990Z,60.60
2018-05-29T04:20:15.570Z,61.50
2018-05-29T04:22:45.332Z,60.30
2018-05-29T04:25:13.729Z,60.30
2018-05-29T04:27:42.013Z,59.00
2018-05-29T04:30:10.467Z,59.40
2018-05-29T04:32:39.061Z,58.30
2018-05-29T04:35:07.480Z,58.70
2018-05-29T04:37:37.632Z,59.10
2018-05-29T04:40:07.062Z,60.50
2018-05-29T04:42:35.415Z,60.40
2018-05-29T04:45:04.517Z,61.30
2018-05-29T04:47:33.172Z,61.30
2018-05-29T04:50:01.624Z,61.90
2018-05-29T04:52:30.074Z,61.80
2018-05-29T04:54:58.451Z,61.70
2018-05-29T04:57:26.815Z,62.20
2018-05-29T04:59:55.141Z,62.60
2018-05-29T05:02:23.563Z,62.90
2018-05-29T05:04:52.121Z,62.90
2018-05-29T05:07:20.458Z,62.80
2018-05-29T05:09:48.813Z,63.10
2018-05-29T05:12:17.144Z,63.00
2018-05-29T05:14:45.777Z,63.20
2018-05-29T05:17:14.457Z,62.90
2018-05-29T05:19:42.831Z,63.00
2018-05-29T05:22:11.292Z,62.90
2018-05-29T05:24:40.738Z,62.90
2018-05-29T05:27:09.183Z,62.90
2018-05-29T05:29:38.517Z,62.40
2018-05-29T05:32:06.954Z,62.40
2018-05-29T05:34:36.253Z,62.30
2018-05-29T05:37:04.632Z,62.20
2018-05-29T05:39:33.531Z,62.30
2018-05-29T05:42:01.877Z,62.30
2018-05-29T05:44:31.114Z,62.60
2018-05-29T05:46:59.468Z,62.70
2018-05-29T05:49:27.799Z,62.40
2018-05-29T05:51:56.221Z,62.40
2018-05-29T05:54:24.691Z,61.50
2018-05-29T05:56:54.283Z,61.40
2018-05-29T05:59:23.727Z,61.40
2018-05-29T06:01:52.177Z,61.60
2018-05-29T06:04:21.347Z,61.60
2018-05-29T06:06:51.306Z,61.80
2018-05-29T06:09:19.809Z,61.70
2018-05-29T06:11:48.406Z,62.30
2018-05-29T06:14:16.771Z,62.30
2018-05-29T06:16:45.128Z,62.50
2018-05-29T06:19:13.464Z,62.10
2018-05-29T06:21:41.863Z,61.70
2018-05-29T06:24:10.978Z,61.60
2018-05-29T06:26:39.508Z,61.60
2018-05-29T06:29:07.916Z,61.20
2018-05-29T06:31:36.652Z,61.10
2018-05-29T06:34:05.012Z,60.50
2018-05-29T06:36:33.958Z,59.80
2018-05-29T06:39:03.018Z,59.50
2018-05-29T06:41:31.583Z,59.50
2018-05-29T06:43:59.868Z,59.30
2018-05-29T06:46:28.442Z,59.20
2018-05-29T06:48:56.791Z,58.90
2018-05-29T06:51:25.323Z,58.90
2018-05-29T06:53:53.632Z,58.30
2018-05-29T06:56:22.011Z,58.30
2018-05-29T06:58:50.406Z,57.90
2018-05-29T07:01:19.824Z,57.20
2018-05-29T07:03:48.278Z,57.10
2018-05-29T07:06:16.755Z,57.20
2018-05-29T07:08:45.059Z,57.20
2018-05-29T07:11:13.433Z,56.40
2018-05-29T07:13:41.751Z,55.90
2018-05-29T07:16:10.207Z,56.20
2018-05-29T07:18:38.546Z,57.00
2018-05-29T07:21:07.076Z,56.50
2018-05-29T07:23:36.393Z,56.30
2018-05-29T07:26:05.612Z,56.50
2018-05-29T07:28:34.133Z,55.80
2018-05-29T07:31:02.458Z,54.40
2018-05-29T07:33:32.817Z,55.20
2018-05-29T07:36:01.192Z,55.30
2018-05-29T07:38:29.697Z,55.00
2018-05-29T07:40:58.127Z,54.60
2018-05-29T07:43:26.472Z,54.50
2018-05-29T07:45:54.991Z,54.40
2018-05-29T07:48:23.347Z,54.30
2018-05-29T07:50:52.496Z,53.90
2018-05-29T07:53:21.066Z,53.90
2018-05-29T07:55:49.545Z,53.40
2018-05-29T07:58:17.871Z,53.40
2018-05-29T08:00:47.015Z,53.70
2018-05-29T08:03:15.453Z,53.60
2018-05-29T08:05:44.573Z,52.40
2018-05-29T08:08:12.946Z,52.50
2018-05-29T08:10:41.479Z,52.10
2018-05-29T08:13:09.967Z,52.80
2018-05-29T08:15:38.476Z,52.30
2018-05-29T08:18:06.777Z,53.00
2018-05-29T08:20:35.171Z,53.40
2018-05-29T08:23:03.532Z,53.00
2018-05-29T08:25:31.903Z,53.10
2018-05-29T08:28:00.412Z,53.10
2018-05-29T08:30:28.862Z,52.10
2018-05-29T08:32:57.941Z,52.20
2018-05-29T08:35:26.438Z,50.70
2018-05-29T08:37:54.856Z,50.40
2018-05-29T08:40:23.393Z,50.50
2018-05-29T08:42:52.942Z,50.70
2018-05-29T08:45:21.313Z,50.60
2018-05-29T08:47:50.487Z,49.80
2018-05-29T08:50:18.954Z,49.80
2018-05-29T08:52:47.447Z,50.20
2018-05-29T08:55:15.978Z,50.20
2018-05-29T08:57:45.239Z,49.70
2018-05-29T09:00:13.661Z,49.80
2018-05-29T09:02:42.899Z,48.90
2018-05-29T09:05:11.300Z,48.90
2018-05-29T09:07:39.884Z,48.90
2018-05-29T09:10:10.127Z,47.90
2018-05-29T09:12:40.563Z,48.70
2018-05-29T09:15:09.053Z,48.70
2018-05-29T09:17:37.600Z,47.20
2018-05-29T09:20:05.983Z,47.40
2018-05-29T09:22:35.332Z,47.90
2018-05-29T09:25:04.658Z,48.70
2018-05-29T09:27:33.113Z,48.00
2018-05-29T09:30:01.511Z,49.00
2018-05-29T09:32:29.828Z,47.60
2018-05-29T09:34:59.232Z,47.00
2018-05-29T09:37:27.959Z,47.00
2018-05-29T09:39:57.199Z,47.10
2018-05-29T09:42:26.517Z,47.40
2018-05-29T09:44:55.636Z,45.80
2018-05-29T09:47:25.728Z,45.50
2018-05-29T09:49:56.034Z,45.60
2018-05-29T09:52:25.133Z,44.20
2018-05-29T09:54:53.551Z,44.20
2018-05-29T09:57:21.865Z,44.40
2018-05-29T09:59:50.192Z,45.00
2018-05-29T10:02:18.784Z,44.20
2018-05-29T10:04:47.228Z,44.30
2018-05-29T10:07:15.817Z,44.50
2018-05-29T10:09:44.136Z,44.40
2018-05-29T10:12:12.512Z,45.50
2018-05-29T10:14:40.879Z,45.50
2018-05-29T10:17:09.552Z,42.70
2018-05-29T10:19:37.923Z,41.80
2018-05-29T10:22:06.294Z,41.60
2018-05-29T10:24:34.639Z,42.20
2018-05-29T10:27:03.047Z,44.10
2018-05-29T10:29:31.803Z,43.50
2018-05-29T10:32:00.139Z,43.90
2018-05-29T10:34:28.494Z,44.10
2018-05-29T10:36:56.972Z,44.20
2018-05-29T10:39:25.487Z,44.90
2018-05-29T10:41:53.988Z,45.60
2018-05-29T10:44:22.519Z,45.20
2018-05-29T10:46:51.113Z,44.70
2018-05-29T10:49:19.454Z,44.70
2018-05-29T10:51:50.043Z,44.40
2018-05-29T10:54:18.454Z,44.30
2018-05-29T10:56:47.688Z,44.70
2018-05-29T10:59:16.163Z,44.60
2018-05-29T11:01:44.713Z,45.30
2018-05-29T11:04:13.192Z,45.10
2018-05-29T11:06:42.431Z,44.10
2018-05-29T11:09:10.855Z,44.10
2018-05-29T11:11:39.401Z,44.10
2018-05-29T11:14:07.844Z,45.30
2018-05-29T11:16:36.352Z,44.90
2018-05-29T11:19:04.664Z,45.80
2018-05-29T11:21:33.039Z,45.10
2018-05-29T11:24:01.394Z,44.90
2018-05-29T11:26:29.858Z,45.00
2018-05-29T11:28:58.355Z,44.20
2018-05-29T11:31:26.907Z,45.50
2018-05-29T11:33:55.494Z,45.70
2018-05-29T11:36:24.059Z,45.00
2018-05-29T11:38:52.598Z,44.80
2018-05-29T11:41:20.943Z,43.00
2018-05-29T11:43:49.413Z,42.90
2018-05-29T11:46:17.930Z,42.70
2018-05-29T11:48:46.391Z,43.80
2018-05-29T11:51:15.213Z,44.20
2018-05-29T11:53:45.763Z,43.70
2018-05-29T11:56:14.121Z,43.60
2018-05-29T11:58:43.283Z,42.50
2018-05-29T12:01:11.640Z,42.30
2018-05-29T12:03:39.957Z,44.10
2018-05-29T12:06:08.381Z,42.30
2018-05-29T12:08:36.833Z,42.20
2018-05-29T12:11:06.068Z,43.00
2018-05-29T12:13:34.534Z,43.00
2018-05-29T12:16:02.929Z,41.90
2018-05-29T12:18:31.304Z,41.40
2018-05-29T12:20:59.670Z,42.30
2018-05-29T12:23:28.018Z,42.10
2018-05-29T12:25:58.439Z,42.90
2018-05-29T12:28:26.845Z,42.90
2018-05-29T12:30:55.333Z,40.80
2018-05-29T12:33:23.648Z,41.30
2018-05-29T12:35:51.951Z,42.10
2018-05-29T12:38:21.160Z,41.30
2018-05-29T12:40:49.485Z,41.30
2018-05-29T12:43:17.938Z,41.80
2018-05-29T12:45:46.276Z,41.90
2018-05-29T12:48:14.883Z,40.60
2018-05-29T12:50:43.260Z,40.30
2018-05-29T12:53:11.667Z,40.60
2018-05-29T12:55:41.904Z,42.00
2018-05-29T12:58:10.450Z,41.20
2018-05-29T13:00:39.125Z,41.70
2018-05-29T13:03:07.475Z,42.30
2018-05-29T13:05:36.583Z,42.30
2018-05-29T13:08:04.985Z,42.10
2018-05-29T13:10:33.562Z,42.60
2018-05-29T13:13:01.953Z,42.30
2018-05-29T13:15:30.445Z,43.10
2018-05-29T13:17:58.797Z,44.00
2018-05-29T13:20:27.140Z,44.90
2018-05-29T13:22:56.272Z,45.90
2018-05-29T13:25:24.659Z,45.80
2018-05-29T13:27:54.775Z,45.80
2018-05-29T13:30:23.084Z,46.10
2018-05-29T13:32:51.485Z,46.30
2018-05-29T13:35:20.628Z,46.90
2018-05-29T13:37:49.164Z,46.90
2018-05-29T13:40:18.359Z,46.90
2018-05-29T13:42:47.500Z,47.50
2018-05-29T13:45:15.876Z,47.50
2018-05-29T13:47:44.419Z,47.80
2018-05-29T13:50:12.924Z,48.70
2018-05-29T13:52:41.294Z,49.40
2018-05-29T13:55:09.869Z,48.10
2018-05-29T13:57:38.209Z,48.50
2018-05-29T14:00:08.053Z,49.90
2018-05-29T14:02:36.563Z,49.80
2018-05-29T14:05:05.084Z,50.00
2018-05-29T14:07:33.518Z,50.50
2018-05-29T14:10:01.966Z,50.80
2018-05-29T14:12:30.316Z,50.50
2018-05-29T14:14:58.865Z,51.00
2018-05-29T14:17:27.295Z,51.10
2018-05-29T14:19:55.825Z,51.10
2018-05-29T14:22:24.228Z,51.00
2018-05-29T14:24:52.770Z,50.50
2018-05-29T14:27:21.120Z,51.90
2018-05-29T14:29:49.662Z,53.10
2018-05-29T14:32:20.794Z,55.20
2018-05-29T14:34:49.165Z,54.90
2018-05-29T14:37:17.504Z,54.20
2018-05-29T14:39:45.928Z,54.00
2018-05-29T14:42:15.069Z,53.40
2018-05-29T14:44:43.561Z,53.30
2018-05-29T14:47:12.081Z,53.90
2018-05-29T14:49:41.456Z,53.90
2018-05-29T14:52:09.981Z,53.90
2018-05-29T14:54:38.360Z,54.00
2018-05-29T14:57:06.746Z,54.70
2018-05-29T14:59:35.960Z,55.30
2018-05-29T15:02:04.573Z,55.40
2018-05-29T15:04:32.969Z,55.20
2018-05-29T15:07:01.645Z,55.00
2018-05-29T15:09:30.385Z,55.20
2018-05-29T15:11:59.070Z,55.60
2018-05-29T15:14:27.756Z,55.60
2018-05-29T15:16:56.151Z,56.40
2018-05-29T15:19:24.799Z,56.60
2018-05-29T15:21:54.073Z,55.40
2018-05-29T15:24:22.498Z,55.40
2018-05-29T15:26:51.005Z,55.60
2018-05-29T15:29:19.781Z,56.30
2018-05-29T15:31:48.300Z,56.70
2018-05-29T15:34:16.702Z,58.10
2018-05-29T15:36:45.920Z,59.50
2018-05-29T15:39:16.166Z,59.80
2018-05-29T15:41:44.767Z,59.90
2018-05-29T15:44:13.205Z,60.50
2018-05-29T15:46:42.706Z,61.50
2018-05-29T15:49:11.050Z,61.50
2018-05-29T15:51:40.209Z,61.90
2018-05-29T15:54:08.685Z,61.90
2018-05-29T15:56:37.186Z,61.90
2018-05-29T15:59:05.620Z,62.30
2018-05-29T16:01:34.063Z,64.20
2018-05-29T16:04:02.424Z,65.10
2018-05-29T16:06:30.771Z,64.90
2018-05-29T16:08:59.249Z,65.30
2018-05-29T16:11:27.615Z,66.80
2018-05-29T16:13:57.664Z,66.20
2018-05-29T16:16:27.752Z,66.70
2018-05-29T16:18:58.013Z,66.30
2018-05-29T16:21:27.855Z,66.80
2018-05-29T16:23:58.180Z,68.30
2018-05-29T16:26:28.068Z,67.70
2018-05-29T16:28:58.025Z,67.50
2018-05-29T16:31:28.176Z,67.40
2018-05-29T16:33:58.157Z,67.10
2018-05-29T16:36:28.264Z,67.60
2018-05-29T16:38:58.325Z,67.70
2018-05-29T16:41:26.890Z,67.70
2018-05-29T16:43:57.447Z,67.40
2018-05-29T16:46:26.871Z,67.30
2018-05-29T16:48:56.910Z,68.20
2018-05-29T16:51:25.362Z,68.10
2018-05-29T16:53:53.902Z,68.60
2018-05-29T16:56:22.403Z,67.50
2018-05-29T16:58:51.280Z,67.50
2018-05-29T17:01:21.549Z,66.30
2018-05-29T17:03:50.000Z,66.20
2018-05-29T17:06:18.441Z,66.00
2018-05-29T17:08:47.034Z,67.00
2018-05-29T17:11:15.469Z,66.90
2018-05-29T17:13:44.599Z,67.80
2018-05-29T17:16:13.069Z,67.70
2018-05-29T17:18:41.823Z,67.00
2018-05-29T17:21:10.259Z,66.80
2018-05-29T17:23:38.592Z,65.00
2018-05-29T17:26:07.096Z,63.60
2018-05-29T17:28:35.654Z,62.60
2018-05-29T17:31:04.082Z,62.20
2018-05-29T17:33:32.462Z,62.10
2018-05-29T17:36:00.992Z,61.70
2018-05-29T17:38:30.249Z,60.80
2018-05-29T17:40:58.721Z,60.70
2018-05-29T17:43:27.205Z,62.10
2018-05-29T17:45:55.691Z,62.60
2018-05-29T17:48:24.051Z,63.20
2018-05-29T17:50:52.717Z,64.90
2018-05-29T17:53:21.287Z,66.00
2018-05-29T17:55:49.883Z,64.40
2018-05-29T17:58:18.304Z,63.90
2018-05-29T18:00:47.149Z,63.60
2018-05-29T18:03:15.587Z,63.00
2018-05-29T18:05:43.987Z,62.60
2018-05-29T18:08:12.675Z,62.60
2018-05-29T18:10:41.367Z,62.30
2018-05-29T18:13:10.187Z,62.30
2018-05-29T18:15:39.359Z,62.20
2018-05-29T18:18:07.883Z,62.20
2018-05-29T18:20:37.336Z,63.50
2018-05-29T18:23:06.325Z,63.50
2018-05-29T18:25:35.331Z,64.90
2018-05-29T18:28:03.798Z,64.50
2018-05-29T18:30:32.206Z,63.90
2018-05-29T18:33:00.771Z,64.00
2018-05-29T18:35:29.390Z,64.80
2018-05-29T18:37:58.528Z,65.20
2018-05-29T18:40:26.979Z,64.60
2018-05-29T18:42:55.532Z,65.40
2018-05-29T18:45:24.144Z,65.80
2018-05-29T18:47:53.503Z,65.20
2018-05-29T18:50:21.850Z,65.10
2018-05-29T18:52:50.232Z,65.20
2018-05-29T18:55:18.740Z,65.00
2018-05-29T18:57:47.260Z,63.50
2018-05-29T19:00:16.451Z,64.60
2018-05-29T19:02:45.727Z,63.70
2018-05-29T19:05:14.211Z,63.70
2018-05-29T19:07:42.714Z,63.70
2018-05-29T19:10:11.836Z,64.30
2018-05-29T19:12:40.365Z,64.30
2018-05-29T19:15:08.735Z,64.10
2018-05-29T19:17:38.401Z,63.20
2018-05-29T19:20:06.797Z,64.10
2018-05-29T19:22:35.330Z,63.60
2018-05-29T19:25:04.741Z,63.20
2018-05-29T19:27:33.118Z,63.10
2018-05-29T19:30:01.454Z,62.40
2018-05-29T19:32:29.839Z,61.80
2018-05-29T19:34:58.180Z,61.50
2018-05-29T19:37:26.685Z,61.40
2018-05-29T19:39:55.181Z,60.60
2018-05-29T19:42:24.304Z,60.50
2018-05-29T19:44:52.827Z,60.50
2018-05-29T19:47:21.154Z,60.90
2018-05-29T19:49:50.330Z,60.80
2018-05-29T19:52:19.540Z,60.80
2018-05-29T19:54:48.660Z,61.40
2018-05-29T19:57:17.002Z,61.40
2018-05-29T19:59:46.108Z,61.60
2018-05-29T20:02:15.199Z,61.90
2018-05-29T20:04:44.489Z,61.70
2018-05-29T20:07:13.727Z,62.20
2018-05-29T20:09:42.120Z,62.20
2018-05-29T20:12:10.541Z,62.30
2018-05-29T20:14:38.990Z,62.40
2018-05-29T20:17:07.837Z,62.20
2018-05-29T20:19:36.345Z,63.30
2018-05-29T20:22:04.981Z,64.50
2018-05-29T20:24:33.620Z,65.70
2018-05-29T20:27:02.407Z,66.60
2018-05-29T20:29:31.059Z,67.00
2018-05-29T20:31:59.450Z,68.10
2018-05-29T20:34:28.345Z,68.70
2018-05-29T20:36:56.806Z,69.30
2018-05-29T20:39:25.460Z,70.80
2018-05-29T20:41:55.052Z,71.20
2018-05-29T20:44:24.489Z,72.00
2018-05-29T20:46:52.973Z,71.70
2018-05-29T20:49:21.316Z,72.10
2018-05-29T20:51:50.551Z,72.20
2018-05-29T20:54:19.140Z,72.20
2018-05-29T20:56:47.602Z,72.10
2018-05-29T20:59:17.626Z,72.50
2018-05-29T21:01:46.055Z,72.50
2018-05-29T21:04:14.577Z,73.10
2018-05-29T21:06:43.077Z,73.20
2018-05-29T21:09:11.575Z,73.70
2018-05-29T21:11:39.890Z,73.40
2018-05-29T21:14:09.036Z,73.90
2018-05-29T21:16:37.401Z,73.80
2018-05-29T21:19:05.760Z,74.10
2018-05-29T21:21:34.086Z,74.20
2018-05-29T21:24:02.634Z,74.20
2018-05-29T21:26:31.201Z,74.30
2018-05-29T21:28:59.622Z,74.90
2018-05-29T21:31:28.008Z,74.80
2018-05-29T21:33:56.330Z,75.60
2018-05-29T21:36:24.786Z,75.90
2018-05-29T21:38:53.860Z,77.10
2018-05-29T21:41:22.293Z,77.10
2018-05-29T21:43:50.969Z,77.60
2018-05-29T21:46:19.319Z,77.90
2018-05-29T21:48:48.471Z,78.00
2018-05-29T21:51:16.846Z,77.90
2018-05-29T21:53:45.241Z,77.40
2018-05-29T21:56:13.587Z,78.10
2018-05-29T21:58:42.007Z,78.40
2018-05-29T22:01:10.553Z,78.00
2018-05-29T22:03:38.896Z,78.80
2018-05-29T22:06:07.275Z,79.50
2018-05-29T22:08:35.876Z,79.70
2018-05-29T22:11:04.423Z,79.90
2018-05-29T22:13:32.787Z,80.80
2018-05-29T22:16:02.041Z,79.50
2018-05-29T22:18:30.372Z,78.90
2018-05-29T22:20:59.648Z,77.70
2018-05-29T22:23:28.157Z,77.60
2018-05-29T22:25:56.538Z,77.20
2018-05-29T22:28:25.271Z,76.80
2018-05-29T22:30:53.627Z,77.10
2018-05-29T22:33:22.186Z,76.70
2018-05-29T22:35:50.908Z,75.60
2018-05-29T22:38:19.390Z,75.30
2018-05-29T22:40:47.856Z,75.20
2018-05-29T22:43:16.576Z,74.90
2018-05-29T22:45:45.077Z,74.90
2018-05-29T22:48:14.255Z,74.00
2018-05-29T22:50:42.599Z,74.10
2018-05-29T22:53:11.158Z,74.20
2018-05-29T22:55:39.689Z,74.20
2018-05-29T22:58:08.133Z,73.80
2018-05-29T23:00:36.468Z,74.10
2018-05-29T23:03:06.709Z,73.60
2018-05-29T23:05:35.096Z,73.50
2018-05-29T23:08:03.423Z,73.70
2018-05-29T23:10:32.116Z,73.50
2018-05-29T23:13:00.597Z,73.50
2018-05-29T23:15:29.811Z,74.10
2018-05-29T23:17:58.196Z,74.20
2018-05-29T23:20:26.538Z,73.50
2018-05-29T23:22:55.144Z,73.60
2018-05-29T23:25:24.495Z,73.50
2018-05-29T23:27:52.972Z,73.50
2018-05-29T23:30:21.441Z,73.50
2018-05-29T23:32:49.873Z,73.30
2018-05-29T23:35:20.071Z,73.80
2018-05-29T23:37:48.661Z,73.80
2018-05-29T23:40:17.871Z,74.10
2018-05-29T23:42:47.164Z,74.00
2018-05-29T23:45:16.280Z,73.90
2018-05-29T23:47:44.740Z,73.90
2018-05-29T23:50:14.165Z,74.40
2018-05-29T23:52:42.514Z,74.40
2018-05-29T23:55:11.637Z,73.90
2018-05-29T23:57:40.245Z,74.00
